createdAt,value
2022-08-30T00:01:05.357Z,98722.72
2022-08-30T00:06:09.698Z,98715.66
2022-08-30T00:11:14.484Z,98717.63
2022-08-30T00:16:17.596Z,98709.38
2022-08-30T00:21:19.722Z,98715.19
2022-08-30T00:26:22.628Z,98720.19
2022-08-30T00:31:24.550Z,98717.75
2022-08-30T00:36:26.646Z,98716.88
2022-08-30T00:41:37.445Z,98723.84
2022-08-30T00:46:39.429Z,98718.19
2022-08-30T00:52:01.928Z,98709.69
2022-08-30T00:57:05.117Z,98713.19
2022-08-30T01:02:07.547Z,98720.56
2022-08-30T01:07:09.469Z,98718.16
2022-08-30T01:12:11.843Z,98718.88
2022-08-30T01:17:14.655Z,98710.25
2022-08-30T01:22:45.354Z,98707.91
2022-08-30T01:27:56.004Z,98710.66
2022-08-30T01:33:01.275Z,98707.63
2022-08-30T01:38:03.217Z,98708.13
2022-08-30T01:43:05.741Z,98700.22
2022-08-30T01:48:08.498Z,98708.38
2022-08-30T01:53:13.053Z,98715.78
2022-08-30T01:58:15.318Z,98715.66
2022-08-30T02:03:17.518Z,98712.44
2022-08-30T02:08:19.478Z,98710.06
2022-08-30T02:13:21.388Z,98706.88
2022-08-30T02:18:25.252Z,98708.53
2022-08-30T02:23:27.969Z,98712.06
2022-08-30T02:28:30.140Z,98711.69
2022-08-30T02:33:32.199Z,98714.63
2022-08-30T02:38:34.504Z,98710.06
2022-08-30T02:43:36.389Z,98713.50
2022-08-30T02:48:38.376Z,98720.09
2022-08-30T02:53:42.493Z,98708.28
2022-08-30T02:58:45.337Z,98706.31
2022-08-30T03:03:47.327Z,98707.00
2022-08-30T03:08:49.295Z,98715.56
2022-08-30T03:13:51.359Z,98713.13
2022-08-30T03:18:53.308Z,98711.50
2022-08-30T03:23:55.148Z,98715.81
2022-08-30T03:28:57.003Z,98713.13
2022-08-30T03:33:58.942Z,98711.69
2022-08-30T03:39:00.822Z,98717.16
2022-08-30T03:44:04.355Z,98705.47
2022-08-30T03:49:07.979Z,98703.50
2022-08-30T03:54:10.134Z,98702.41
2022-08-30T03:59:12.099Z,98710.97
2022-08-30T04:04:18.657Z,98701.22
2022-08-30T04:09:23.542Z,98707.13
2022-08-30T04:14:25.418Z,98709.53
2022-08-30T04:19:27.302Z,98715.81
2022-08-30T04:24:29.242Z,98715.84
2022-08-30T04:29:31.482Z,98720.19
2022-08-30T04:34:33.386Z,98724.03
2022-08-30T04:39:35.329Z,98715.78
2022-08-30T04:44:37.363Z,98734.16
2022-08-30T04:49:39.488Z,98730.69
2022-08-30T04:54:41.419Z,98731.53
2022-08-30T04:59:43.279Z,98733.16
2022-08-30T05:05:03.985Z,98736.28
2022-08-30T05:10:10.961Z,98733.25
2022-08-30T05:15:13.678Z,98746.63
2022-08-30T05:20:16.240Z,98754.56
2022-08-30T05:25:20.774Z,98754.22
2022-08-30T05:30:24.100Z,98756.28
2022-08-30T05:35:26.091Z,98769.66
2022-08-30T05:40:29.182Z,98765.00
2022-08-30T05:45:31.285Z,98758.78
2022-08-30T05:50:34.975Z,98758.81
2022-08-30T05:55:41.522Z,98767.06
2022-08-30T06:00:43.400Z,98771.41
2022-08-30T06:10:55.244Z,98773.28
2022-08-30T06:15:57.430Z,98783.06
2022-08-30T06:20:59.387Z,98770.38
2022-08-30T06:26:07.762Z,98759.97
2022-08-30T06:31:12.461Z,98764.50
2022-08-30T06:36:17.621Z,98755.69
2022-08-30T06:41:22.502Z,98756.94
2022-08-30T06:46:31.047Z,98761.03
2022-08-30T06:51:37.111Z,98748.66
2022-08-30T06:56:40.210Z,98761.00
2022-08-30T07:01:44.381Z,98771.78
2022-08-30T07:06:46.593Z,98773.00
2022-08-30T07:11:48.664Z,98765.88
2022-08-30T07:16:51.334Z,98769.91
2022-08-30T07:21:54.135Z,98766.53
2022-08-30T07:26:56.012Z,98775.72
2022-08-30T07:31:57.906Z,98787.94
2022-08-30T07:36:59.925Z,98792.50
2022-08-30T07:42:02.259Z,98798.72
2022-08-30T07:47:05.628Z,98796.91
2022-08-30T07:52:07.661Z,98794.72
2022-08-30T07:57:09.559Z,98801.53
2022-08-30T08:02:11.455Z,98794.72
2022-08-30T08:07:13.365Z,98797.94
2022-08-30T08:12:15.350Z,98793.06
2022-08-30T08:17:17.293Z,98786.50
2022-08-30T08:22:21.553Z,98802.78
2022-08-30T08:27:24.856Z,98797.72
2022-08-30T08:32:26.763Z,98796.72
2022-08-30T08:37:28.654Z,98806.22
2022-08-30T08:42:54.778Z,98796.66
2022-08-30T08:48:04.060Z,98805.13
2022-08-30T08:53:46.651Z,98789.25
2022-08-30T08:58:53.340Z,98791.06
2022-08-30T09:03:57.399Z,98788.19
2022-08-30T09:08:59.556Z,98796.63
2022-08-30T09:14:01.459Z,98797.88
2022-08-30T09:19:03.869Z,98793.78
2022-08-30T09:24:08.759Z,98786.56
2022-08-30T09:29:18.429Z,98780.91
2022-08-30T09:34:23.959Z,98777.88
2022-08-30T09:39:34.817Z,98776.66
2022-08-30T09:44:38.227Z,98779.09
2022-08-30T09:49:45.650Z,98772.63
2022-08-30T09:55:21.352Z,98763.78
2022-08-30T10:00:29.025Z,98766.78
2022-08-30T10:05:33.565Z,98776.25
2022-08-30T10:10:46.798Z,98759.00
2022-08-30T10:15:58.693Z,98763.28
2022-08-30T10:21:00.535Z,98773.38
2022-08-30T10:26:14.653Z,98767.88
2022-08-30T10:31:29.611Z,98757.00
2022-08-30T10:36:33.669Z,98759.03
2022-08-30T10:41:44.689Z,98756.84
2022-08-30T10:47:22.953Z,98752.84
2022-08-30T10:52:44.381Z,98754.75
2022-08-30T10:57:48.641Z,98751.63
2022-08-30T11:03:05.680Z,98751.09
2022-08-30T11:08:22.184Z,98749.72
2022-08-30T11:13:30.002Z,98743.91
2022-08-30T11:18:50.926Z,98740.75
2022-08-30T11:24:21.115Z,98737.78
2022-08-30T11:29:43.823Z,98737.06
2022-08-30T11:34:46.555Z,98752.13
2022-08-30T11:39:48.997Z,98736.44
2022-08-30T11:44:50.943Z,98742.78
2022-08-30T11:50:09.933Z,98734.00
2022-08-30T11:55:34.411Z,98732.25
2022-08-30T12:00:44.904Z,98727.78
2022-08-30T12:06:07.271Z,98730.69
2022-08-30T12:11:12.405Z,98708.84
2022-08-30T12:16:22.093Z,98708.72
2022-08-30T12:21:31.177Z,98712.88
2022-08-30T12:26:44.926Z,98708.94
2022-08-30T12:31:52.798Z,98702.50
2022-08-30T12:37:05.564Z,98696.66
2022-08-30T12:42:20.447Z,98698.19
2022-08-30T12:47:28.543Z,98696.63
2022-08-30T12:52:40.839Z,98694.56
2022-08-30T12:58:10.128Z,98681.84
2022-08-30T13:03:54.182Z,98681.84
2022-08-30T13:08:56.137Z,98688.47
2022-08-30T13:14:20.983Z,98672.78
2022-08-30T13:19:36.054Z,98680.56
2022-08-30T13:24:37.909Z,98681.09
2022-08-30T13:29:40.602Z,98692.13
2022-08-30T13:34:45.351Z,98688.69
2022-08-30T13:39:47.292Z,98687.66
2022-08-30T13:44:49.993Z,98684.88
2022-08-30T13:49:51.880Z,98684.06
2022-08-30T13:54:55.647Z,98675.06
2022-08-30T13:59:57.742Z,98682.50
2022-08-30T14:05:02.853Z,98677.47
2022-08-30T14:15:28.738Z,98673.59
2022-08-30T14:20:31.166Z,98673.59
2022-08-30T14:25:33.391Z,98677.84
2022-08-30T14:30:35.430Z,98667.38
2022-08-30T14:35:37.378Z,98672.03
2022-08-30T14:40:41.482Z,98675.13
2022-08-30T14:45:43.775Z,98664.00
2022-08-30T14:50:45.778Z,98667.50
2022-08-30T14:55:47.659Z,98673.66
2022-08-30T15:00:52.626Z,98660.59
2022-08-30T15:05:54.543Z,98660.81
2022-08-30T15:10:56.527Z,98656.06
2022-08-30T15:15:58.473Z,98654.97
2022-08-30T15:21:00.346Z,98653.09
2022-08-30T15:26:02.721Z,98648.66
2022-08-30T15:31:08.701Z,98636.88
2022-08-30T15:36:12.648Z,98631.16
2022-08-30T15:41:15.675Z,98642.19
2022-08-30T15:46:29.937Z,98633.19
2022-08-30T15:51:41.153Z,98641.63
2022-08-30T15:56:44.908Z,98645.97
2022-08-30T16:01:47.662Z,98640.91
2022-08-30T16:06:50.097Z,98650.69
2022-08-30T16:11:54.442Z,98647.13
2022-08-30T16:16:57.118Z,98631.59
2022-08-30T16:21:59.547Z,98648.44
2022-08-30T16:27:01.561Z,98637.56
2022-08-30T16:32:03.794Z,98632.09
2022-08-30T16:37:05.672Z,98633.44
2022-08-30T16:42:08.012Z,98631.75
2022-08-30T16:47:13.332Z,98632.41
2022-08-30T16:52:16.701Z,98626.53
2022-08-30T16:57:20.154Z,98619.97
2022-08-30T17:02:22.223Z,98628.38
2022-08-30T17:07:24.274Z,98624.28
2022-08-30T17:12:26.360Z,98628.13
2022-08-30T17:17:28.277Z,98631.63
2022-08-30T17:22:31.648Z,98647.75
2022-08-30T17:27:33.703Z,98647.28
2022-08-30T17:32:35.960Z,98647.44
2022-08-30T17:37:38.140Z,98655.28
2022-08-30T17:42:40.883Z,98664.19
2022-08-30T17:47:43.746Z,98650.34
2022-08-30T17:52:45.779Z,98663.06
2022-08-30T17:57:47.838Z,98663.13
2022-08-30T18:02:53.108Z,98671.16
2022-08-30T18:07:55.470Z,98675.66
2022-08-30T18:12:58.735Z,98681.88
2022-08-30T18:18:00.745Z,98684.84
2022-08-30T18:23:02.807Z,98684.47
2022-08-30T18:28:07.047Z,98672.72
2022-08-30T18:33:08.905Z,98686.19
2022-08-30T18:38:11.047Z,98695.38
2022-08-30T18:43:13.273Z,98695.00
2022-08-30T18:48:16.034Z,98695.09
2022-08-30T18:53:28.640Z,98703.13
2022-08-30T18:58:31.210Z,98702.41
2022-08-30T19:03:33.979Z,98706.91
2022-08-30T19:08:36.514Z,98708.63
2022-08-30T19:13:39.270Z,98709.94
2022-08-30T19:18:41.585Z,98704.22
2022-08-30T19:23:43.648Z,98711.06
2022-08-30T19:28:45.506Z,98720.72
2022-08-30T19:33:47.686Z,98712.22
2022-08-30T19:38:49.585Z,98715.63
2022-08-30T19:43:51.592Z,98716.59
2022-08-30T19:48:53.462Z,98723.78
2022-08-30T19:53:56.327Z,98719.22
2022-08-30T19:59:00.653Z,98720.19
2022-08-30T20:04:02.846Z,98712.81
2022-08-30T20:09:05.539Z,98714.06
2022-08-30T20:14:13.546Z,98710.59
2022-08-30T20:19:18.561Z,98712.63
2022-08-30T20:24:25.095Z,98716.56
2022-08-30T20:29:28.558Z,98710.34
2022-08-30T20:34:30.581Z,98716.72
2022-08-30T20:39:32.459Z,98717.91
2022-08-30T20:44:34.818Z,98712.06
2022-08-30T20:49:37.224Z,98711.81
2022-08-30T20:54:39.480Z,98711.16
2022-08-30T20:59:41.337Z,98720.72
2022-08-30T21:04:43.213Z,98733.03
2022-08-30T21:09:45.787Z,98723.59
2022-08-30T21:14:47.704Z,98724.94
2022-08-30T21:19:49.666Z,98729.44
2022-08-30T21:24:54.669Z,98719.00
2022-08-30T21:29:57.463Z,98721.50
2022-08-30T21:35:18.006Z,98722.91
2022-08-30T21:40:20.231Z,98721.81
2022-08-30T21:45:22.286Z,98719.91
2022-08-30T21:50:24.152Z,98724.69
2022-08-30T21:55:26.028Z,98727.50
2022-08-30T22:00:27.929Z,98731.91
2022-08-30T22:05:29.762Z,98727.63
2022-08-30T22:10:33.380Z,98740.31
2022-08-30T22:15:35.409Z,98747.81
2022-08-30T22:20:39.880Z,98743.94
2022-08-30T22:25:43.255Z,98742.78
2022-08-30T22:30:45.570Z,98738.53
2022-08-30T22:35:47.444Z,98724.44
2022-08-30T22:40:54.164Z,98721.00
2022-08-30T22:45:57.970Z,98731.63
2022-08-30T22:50:59.845Z,98732.03
2022-08-30T22:56:08.756Z,98741.00
2022-08-30T23:01:22.821Z,98742.53
2022-08-30T23:06:25.329Z,98746.84
2022-08-30T23:11:27.531Z,98755.91
2022-08-30T23:16:32.632Z,98752.44
2022-08-30T23:21:34.717Z,98752.91
2022-08-30T23:26:55.502Z,98746.72
2022-08-30T23:32:16.355Z,98747.59
2022-08-30T23:37:36.834Z,98746.09
2022-08-30T23:42:57.015Z,98742.59
2022-08-30T23:48:17.366Z,98743.81
2022-08-30T23:53:37.779Z,98747.34
2022-08-30T23:59:01.792Z,98731.25
